createdAt,value
2023-04-09T13:46:08.116Z,101581.00
2023-04-09T13:48:39.489Z,101595.00
2023-04-09T13:51:10.868Z,101593.00
2023-04-09T13:53:42.933Z,101589.00
2023-04-09T14:00:14.162Z,101563.00
2023-04-09T14:02:47.183Z,101577.00
2023-04-09T14:05:19.226Z,101577.00
2023-04-09T14:07:51.865Z,101571.00
2023-04-09T14:10:24.350Z,101574.00
2023-04-09T14:12:56.556Z,101567.00
2023-04-09T14:15:28.660Z,101568.00
2023-04-09T14:18:01.048Z,101569.00
2023-04-09T14:20:33.149Z,101561.00
2023-04-09T14:23:05.232Z,101558.00
2023-04-09T14:25:38.617Z,101559.00
2023-04-09T14:28:10.754Z,101562.00
2023-04-09T14:30:42.022Z,101553.00
2023-04-09T14:33:15.192Z,101556.00
2023-04-09T14:35:47.693Z,101552.00
2023-04-09T14:38:20.942Z,101551.00
2023-04-09T14:40:53.915Z,101548.00
2023-04-09T14:43:26.735Z,101550.00
2023-04-09T14:45:58.200Z,101537.00
2023-04-09T14:48:29.595Z,101536.00
2023-04-09T14:51:01.080Z,101541.00
2023-04-09T14:53:33.048Z,101533.00
2023-04-09T14:56:04.970Z,101531.00
2023-04-09T14:58:37.660Z,101539.00
2023-04-09T15:01:10.244Z,101531.00
2023-04-09T15:03:43.648Z,101526.00
2023-04-09T15:06:15.652Z,101523.00
2023-04-09T15:08:47.870Z,101526.00
2023-04-09T15:11:23.955Z,101522.00
2023-04-09T15:13:56.108Z,101529.00
2023-04-09T15:16:29.492Z,101515.00
2023-04-09T15:19:01.243Z,101520.00
2023-04-09T15:21:35.368Z,101521.00
2023-04-09T15:24:07.621Z,101514.00
2023-04-09T15:26:38.948Z,101504.00
2023-04-09T15:29:11.868Z,101504.00
2023-04-09T15:31:43.441Z,101496.00
2023-04-09T15:34:17.176Z,101496.00
2023-04-09T15:36:49.209Z,101504.00
2023-04-09T15:39:21.570Z,101494.00
2023-04-09T15:41:53.354Z,101490.00
2023-04-09T15:44:25.694Z,101493.00
2023-04-09T15:46:57.590Z,101486.00
2023-04-09T15:49:29.356Z,101469.00
2023-04-09T15:52:00.873Z,101473.00
2023-04-09T15:54:32.662Z,101472.00
2023-04-09T15:57:05.302Z,101471.00
2023-04-09T15:59:37.095Z,101460.00
2023-04-09T16:02:09.250Z,101453.00
2023-04-09T16:04:41.063Z,101453.00
2023-04-09T16:07:12.629Z,101456.00
2023-04-09T16:09:44.874Z,101451.00
2023-04-09T16:12:16.493Z,101442.00
2023-04-09T16:14:48.289Z,101437.00
2023-04-09T16:17:20.316Z,101436.00
2023-04-09T16:19:52.110Z,101423.00
2023-04-09T16:22:23.988Z,101419.00
2023-04-09T16:24:56.199Z,101420.00
2023-04-09T16:27:27.544Z,101399.00
2023-04-09T16:29:59.526Z,101410.00
2023-04-09T16:32:30.985Z,101417.00
2023-04-09T16:35:02.939Z,101411.00
2023-04-09T16:37:36.167Z,101403.00
2023-04-09T16:40:09.364Z,101404.00
2023-04-09T16:42:40.962Z,101403.00
2023-04-09T16:45:13.146Z,101397.00
2023-04-09T16:47:45.745Z,101401.00
2023-04-09T16:50:18.566Z,101396.00
2023-04-09T16:52:50.741Z,101394.00
2023-04-09T16:55:23.150Z,101388.00
2023-04-09T16:57:57.529Z,101397.00
2023-04-09T17:00:30.438Z,101382.00
2023-04-09T17:03:03.157Z,101377.00
2023-04-09T17:05:35.977Z,101378.00
2023-04-09T17:08:08.466Z,101382.00
2023-04-09T17:10:40.571Z,101371.00
2023-04-09T17:13:13.642Z,101370.00
2023-04-09T17:15:44.817Z,101369.00
2023-04-09T17:18:17.313Z,101375.00
2023-04-09T17:20:49.161Z,101365.00
2023-04-09T17:23:21.287Z,101366.00
2023-04-09T17:25:54.312Z,101358.00
2023-04-09T17:28:26.693Z,101371.00
2023-04-09T17:30:59.144Z,101364.00
2023-04-09T17:33:31.382Z,101363.00
2023-04-09T17:36:03.030Z,101363.00
2023-04-09T17:38:35.603Z,101366.00
2023-04-09T17:41:07.808Z,101359.00
2023-04-09T17:43:40.159Z,101357.00
2023-04-09T17:46:13.153Z,101357.00
2023-04-09T17:48:45.560Z,101356.00
2023-04-09T17:51:21.031Z,101349.00
2023-04-09T17:53:54.863Z,101346.00
2023-04-09T17:56:26.343Z,101342.00
2023-04-09T17:58:58.540Z,101341.00
2023-04-09T18:01:30.622Z,101331.00
2023-04-09T18:04:03.301Z,101343.00
2023-04-09T18:06:35.528Z,101338.00
2023-04-09T18:09:07.563Z,101328.00
2023-04-09T18:11:38.765Z,101335.00
2023-04-09T18:14:10.283Z,101328.00
2023-04-09T18:16:42.677Z,101329.00
2023-04-09T18:19:14.920Z,101326.00
2023-04-09T18:21:46.074Z,101325.00
2023-04-09T18:24:18.488Z,101315.00
2023-04-09T18:26:51.139Z,101328.00
2023-04-09T18:29:23.718Z,101332.00
2023-04-09T18:31:57.377Z,101319.00
2023-04-09T18:34:30.717Z,101316.00
2023-04-09T18:37:02.946Z,101309.00
2023-04-09T18:39:37.464Z,101310.00
2023-04-09T18:42:08.970Z,101315.00
2023-04-09T18:44:41.585Z,101317.00
2023-04-09T18:47:14.134Z,101303.00
2023-04-09T18:49:46.245Z,101307.00
2023-04-09T18:52:18.266Z,101308.00
2023-04-09T18:54:50.326Z,101302.00
2023-04-09T18:57:21.718Z,101292.00
2023-04-09T18:59:54.115Z,101297.00
2023-04-09T19:02:24.913Z,101306.00
2023-04-09T19:04:57.020Z,101297.00
2023-04-09T19:07:29.389Z,101291.00
2023-04-09T19:10:01.000Z,101289.00
2023-04-09T19:12:32.697Z,101295.00
2023-04-09T19:15:05.881Z,101294.00
2023-04-09T19:17:37.532Z,101288.00
2023-04-09T19:20:10.271Z,101289.00
2023-04-09T19:22:42.580Z,101293.00
2023-04-09T19:25:14.552Z,101286.00
2023-04-09T19:27:47.156Z,101293.00
2023-04-09T19:30:17.988Z,101291.00
2023-04-09T19:32:49.348Z,101289.00
2023-04-09T19:35:20.063Z,101293.00
2023-04-09T19:37:50.797Z,101289.00
2023-04-09T19:40:22.286Z,101292.00
2023-04-09T19:42:53.796Z,101291.00
2023-04-09T19:45:24.951Z,101297.00
2023-04-09T19:47:56.707Z,101288.00
2023-04-09T19:50:28.454Z,101293.00
2023-04-09T19:52:59.208Z,101288.00
2023-04-09T19:55:30.333Z,101296.00
2023-04-09T19:58:01.508Z,101292.00
2023-04-09T20:00:33.696Z,101291.00
2023-04-09T20:03:06.961Z,101289.00
2023-04-09T20:05:38.669Z,101291.00
2023-04-09T20:08:14.334Z,101298.00
2023-04-09T20:10:48.402Z,101283.00
2023-04-09T20:13:19.233Z,101290.00
2023-04-09T20:15:51.372Z,101279.00
2023-04-09T20:18:23.561Z,101277.00
2023-04-09T20:20:55.066Z,101276.00
2023-04-09T20:23:26.668Z,101289.00
2023-04-09T20:25:57.381Z,101280.00
2023-04-09T20:28:29.002Z,101282.00
2023-04-09T20:31:00.815Z,101285.00
2023-04-09T20:33:31.864Z,101271.00
2023-04-09T20:36:02.873Z,101280.00
2023-04-09T20:38:33.521Z,101277.00
2023-04-09T20:41:05.497Z,101282.00
2023-04-09T20:43:36.554Z,101285.00
2023-04-09T20:46:07.832Z,101284.00
2023-04-09T20:48:38.506Z,101290.00
2023-04-09T20:51:13.798Z,101283.00
2023-04-09T20:53:46.752Z,101281.00
2023-04-09T20:56:18.633Z,101285.00
2023-04-09T20:58:49.794Z,101290.00
2023-04-09T21:01:22.988Z,101292.00
2023-04-09T21:03:53.654Z,101295.00
2023-04-09T21:06:25.277Z,101298.00
2023-04-09T21:08:58.593Z,101283.00
2023-04-09T21:11:32.317Z,101294.00
2023-04-09T21:14:04.323Z,101293.00
2023-04-09T21:16:36.558Z,101294.00
2023-04-09T21:19:08.466Z,101295.00
2023-04-09T21:21:40.585Z,101297.00
2023-04-09T21:24:12.555Z,101293.00
2023-04-09T21:26:49.918Z,101298.00
2023-04-09T21:29:22.983Z,101298.00
2023-04-09T21:31:54.648Z,101306.00
2023-04-09T21:34:26.718Z,101308.00
2023-04-09T21:36:57.653Z,101300.00
2023-04-09T21:39:30.107Z,101305.00
2023-04-09T21:42:00.770Z,101307.00
2023-04-09T21:44:32.074Z,101312.00
2023-04-09T21:47:03.046Z,101313.00
2023-04-09T21:49:35.350Z,101319.00
2023-04-09T21:52:07.702Z,101324.00
2023-04-09T21:54:38.299Z,101319.00
2023-04-09T21:57:09.199Z,101318.00
2023-04-09T21:59:42.231Z,101317.00
2023-04-09T22:02:14.135Z,101312.00
2023-04-09T22:04:45.733Z,101313.00
2023-04-09T22:07:17.073Z,101322.00
2023-04-09T22:09:48.713Z,101324.00
2023-04-09T22:12:20.079Z,101322.00
2023-04-09T22:14:51.373Z,101320.00
2023-04-09T22:17:22.470Z,101321.00
2023-04-09T22:19:53.213Z,101327.00
2023-04-09T22:22:24.503Z,101326.00
2023-04-09T22:24:56.089Z,101325.00
2023-04-09T22:27:28.024Z,101328.00
2023-04-09T22:29:59.357Z,101335.00
2023-04-09T22:35:33.151Z,101337.00
2023-04-09T22:44:22.380Z,101347.00
2023-04-09T22:47:19.651Z,101343.00
2023-04-09T22:50:18.144Z,101359.00
2023-04-09T22:53:13.456Z,101361.00
2023-04-09T22:55:44.437Z,101366.00
2023-04-09T22:58:17.019Z,101361.00
2023-04-09T23:00:53.245Z,101358.00
2023-04-09T23:03:25.072Z,101364.00
2023-04-09T23:11:50.104Z,101368.00
2023-04-09T23:23:22.616Z,101367.00
2023-04-09T23:25:53.924Z,101375.00
2023-04-09T23:28:25.691Z,101382.00
2023-04-09T23:30:58.025Z,101374.00
2023-04-09T23:36:07.468Z,101373.00
2023-04-09T23:38:44.828Z,101366.00
2023-04-09T23:41:17.176Z,101377.00
2023-04-09T23:44:12.939Z,101378.00
2023-04-09T23:46:48.593Z,101379.00
2023-04-09T23:49:21.692Z,101372.00
2023-04-09T23:51:54.177Z,101375.00
2023-04-09T23:54:26.241Z,101383.00
